Neenah, WI (54956)

1:46 PM CDT on July 25, 2016 (GMT -0500)
Westwind Village | | Change Station

Elev 774 ft 44.17 °N, 88.50 °W | Updated 8 minutes ago

Scattered Clouds
Scattered Clouds
85.1 °F
Feels Like 88 °F
N
2.7
Wind Variable Wind from NE

Today
High -- | Low -- °F
--% Chance of Precip.
Yesterday
High -- | Low -- °F
Precip. -- in
Pressure 29.99 in
Visibility 10.0 miles
Clouds Scattered Clouds 4100 ft
Heat Index 88 °F
Dew Point 67 °F
Humidity 54%
Rainfall 0.00 in
Snow Depth Not available.
5:34 AM 8:25 PM
Waning Gibbous, 63% visible
METAR KATW 251745Z 29011G16KT 10SM SCT041 27/16 A2999
Pressure 29.99 in
Visibility 10.0 miles
Clouds Scattered Clouds 4100 ft
Heat Index 88 °F
Dew Point 67 °F
Humidity 54%
Rainfall 0.00 in
Snow Depth Not available.
5:34 AM 8:25 PM
Waning Gibbous, 63% visible
METAR KATW 251745Z 29011G16KT 10SM SCT041 27/16 A2999

10-Day Weather Forecast

Almanac

Astronomy

Jul. 25, 2016 Rise Set
Actual Time
Civil Twilight
Nautical Twilight
Astronomical Twilight
Moon
Length of Visible Light
Length of Day
Tomorrow will be .
, % of the Moon is Illuminated

Today's Extremes

State Highs State Lows

Community

WunderPhotos

Upload Photos

1,927,370 photos uploaded!

WunderBlog® & News

Nearby

Air Quality

  Air Quality AQ Index Pollutant
Not available.

Snow Depth

Station Depth Elevation

Earthquake Activity

City Distance Mag. Time & Date
Minimum magnitude displayed is 2.5.

Coastal Water Temperatures

Place Temperature

Stations

Nearby Weather Stations

Station Location Temp. Windchill Dew Point Humidity Wind Precip. Elev Updated Type
                   

Watches & Warnings

There are currently no watches in effect.